createdAt,value
2023-05-14T00:01:10.093Z,99473.59
2023-05-14T00:03:41.312Z,99469.80
2023-05-14T00:06:12.375Z,99466.35
2023-05-14T00:08:43.099Z,99463.50
2023-05-14T00:11:13.833Z,99459.02
2023-05-14T00:13:44.632Z,99458.80
2023-05-14T00:16:16.095Z,99453.37
2023-05-14T00:18:46.898Z,99454.39
2023-05-14T00:21:17.615Z,99452.91
2023-05-14T00:23:48.569Z,99447.83
2023-05-14T00:26:20.427Z,99452.69
2023-05-14T00:28:51.221Z,99445.34
2023-05-14T00:31:21.939Z,99450.01
2023-05-14T00:33:52.616Z,99451.33
2023-05-14T00:36:23.385Z,99451.29
2023-05-14T00:38:54.265Z,99445.99
2023-05-14T00:41:25.299Z,99444.20
2023-05-14T00:43:56.457Z,99442.83
2023-05-14T00:46:27.297Z,99441.83
2023-05-14T00:48:58.558Z,99443.14
2023-05-14T00:51:29.342Z,99442.02
2023-05-14T00:54:00.274Z,99441.33
2023-05-14T00:56:31.234Z,99442.04
2023-05-14T00:59:01.904Z,99443.71
2023-05-14T01:01:32.761Z,99443.00
2023-05-14T01:04:04.070Z,99445.59
2023-05-14T01:06:41.546Z,99442.45
2023-05-14T01:09:15.855Z,99439.63
2023-05-14T01:11:53.370Z,99437.27
2023-05-14T01:14:29.931Z,99435.01
2023-05-14T01:17:03.746Z,99435.48
2023-05-14T01:19:39.158Z,99433.92
2023-05-14T01:22:10.032Z,99427.77
2023-05-14T01:24:41.598Z,99429.02
2023-05-14T01:27:17.317Z,99427.10
2023-05-14T01:29:54.729Z,99425.88
2023-05-14T01:32:26.741Z,99426.75
2023-05-14T01:35:01.516Z,99424.30
2023-05-14T01:37:33.726Z,99423.38
2023-05-14T01:40:06.290Z,99430.08
2023-05-14T01:42:37.910Z,99427.23
2023-05-14T01:45:10.574Z,99429.95
2023-05-14T01:47:41.393Z,99426.47
2023-05-14T01:50:13.519Z,99424.83
2023-05-14T01:52:44.700Z,99425.52
2023-05-14T01:55:15.967Z,99425.63
2023-05-14T01:57:47.055Z,99420.19
2023-05-14T02:00:18.409Z,99419.80
2023-05-14T02:02:49.074Z,99415.92
2023-05-14T02:05:20.438Z,99415.63
2023-05-14T02:07:51.400Z,99411.41
2023-05-14T02:10:22.178Z,99413.84
2023-05-14T02:12:53.321Z,99417.06
2023-05-14T02:15:24.190Z,99417.19
2023-05-14T02:17:55.028Z,99417.78
2023-05-14T02:20:26.005Z,99418.70
2023-05-14T02:22:57.019Z,99417.44
2023-05-14T02:25:27.799Z,99417.89
2023-05-14T02:27:58.407Z,99415.37
2023-05-14T02:30:30.153Z,99413.13
2023-05-14T02:33:01.402Z,99411.80
2023-05-14T02:35:32.183Z,99407.38
2023-05-14T02:38:02.878Z,99405.98
2023-05-14T02:40:33.515Z,99405.23
2023-05-14T02:43:04.359Z,99398.83
2023-05-14T02:45:35.021Z,99397.42
2023-05-14T02:48:06.197Z,99393.58
2023-05-14T02:50:37.497Z,99393.46
2023-05-14T02:53:08.944Z,99386.95
2023-05-14T02:55:39.591Z,99385.44
2023-05-14T02:58:10.627Z,99384.04
2023-05-14T03:00:41.257Z,99382.94
2023-05-14T03:03:12.168Z,99387.46
2023-05-14T03:05:43.413Z,99387.02
2023-05-14T03:08:14.356Z,99387.48
2023-05-14T03:10:45.137Z,99390.48
2023-05-14T03:13:17.942Z,99388.06
2023-05-14T03:15:48.816Z,99390.48
2023-05-14T03:18:19.498Z,99387.15
2023-05-14T03:20:50.203Z,99385.71
2023-05-14T03:23:21.297Z,99384.46
2023-05-14T03:25:52.675Z,99382.44
2023-05-14T03:28:23.576Z,99382.83
2023-05-14T03:30:55.015Z,99384.42
2023-05-14T03:33:25.787Z,99385.56
2023-05-14T03:35:56.590Z,99378.55
2023-05-14T03:38:27.255Z,99377.17
2023-05-14T03:40:58.008Z,99379.79
2023-05-14T03:43:28.726Z,99379.64
2023-05-14T03:46:00.190Z,99380.55
2023-05-14T03:48:30.834Z,99379.69
2023-05-14T03:51:01.878Z,99382.05
2023-05-14T03:53:32.833Z,99381.95
2023-05-14T03:56:03.691Z,99379.46
2023-05-14T03:58:34.436Z,99375.38
2023-05-14T04:01:05.333Z,99369.10
2023-05-14T04:03:36.584Z,99368.67
2023-05-14T04:06:08.127Z,99370.42
2023-05-14T04:08:39.197Z,99365.84
2023-05-14T04:11:10.028Z,99367.59
2023-05-14T04:13:40.711Z,99368.20
2023-05-14T04:16:11.491Z,99365.41
2023-05-14T04:18:42.178Z,99364.66
2023-05-14T04:21:13.199Z,99368.09
2023-05-14T04:23:43.918Z,99373.61
2023-05-14T04:26:14.590Z,99369.75
2023-05-14T04:28:45.809Z,99371.85
2023-05-14T04:31:16.544Z,99373.84
2023-05-14T04:33:47.480Z,99370.73
2023-05-14T04:36:18.777Z,99373.90
2023-05-14T04:38:49.568Z,99368.38
2023-05-14T04:41:20.235Z,99361.72
2023-05-14T04:43:52.413Z,99360.81
2023-05-14T04:46:23.290Z,99360.14
2023-05-14T04:48:54.155Z,99363.92
2023-05-14T04:51:24.888Z,99360.34
2023-05-14T04:53:55.584Z,99361.86
2023-05-14T04:56:26.370Z,99361.23
2023-05-14T04:58:57.115Z,99360.73
2023-05-14T05:01:27.901Z,99361.70
2023-05-14T05:03:58.799Z,99364.12
2023-05-14T05:06:29.542Z,99363.36
2023-05-14T05:09:01.954Z,99362.70
2023-05-14T05:11:32.959Z,99364.89
2023-05-14T05:14:03.669Z,99359.77
2023-05-14T05:16:34.733Z,99359.60
2023-05-14T05:19:05.601Z,99356.58
2023-05-14T05:21:37.142Z,99354.25
2023-05-14T05:24:08.848Z,99352.45
2023-05-14T05:26:39.840Z,99351.34
2023-05-14T05:29:10.617Z,99348.38
2023-05-14T05:31:41.643Z,99349.17
2023-05-14T05:34:12.475Z,99354.59
2023-05-14T05:36:43.204Z,99355.95
2023-05-14T05:39:13.837Z,99353.77
2023-05-14T05:41:44.992Z,99347.70
2023-05-14T05:44:15.875Z,99352.72
2023-05-14T05:46:46.806Z,99347.54
2023-05-14T05:49:17.611Z,99349.70
2023-05-14T05:51:48.327Z,99349.47
2023-05-14T05:54:19.313Z,99346.38
2023-05-14T05:56:50.049Z,99347.90
2023-05-14T05:59:20.741Z,99344.21
2023-05-14T06:01:51.559Z,99348.83
2023-05-14T06:04:22.381Z,99351.48
2023-05-14T06:06:53.192Z,99352.09
2023-05-14T06:09:23.797Z,99347.80
2023-05-14T06:11:54.770Z,99350.20
2023-05-14T06:14:25.469Z,99348.34
2023-05-14T06:16:56.533Z,99349.03
2023-05-14T06:19:27.630Z,99347.34
2023-05-14T06:21:58.637Z,99351.35
2023-05-14T06:24:39.357Z,99348.70
2023-05-14T06:27:11.306Z,99346.27
2023-05-14T06:29:42.234Z,99341.83
2023-05-14T06:32:15.722Z,99348.59
2023-05-14T06:34:46.743Z,99351.79
2023-05-14T06:37:17.611Z,99344.62
2023-05-14T06:39:50.493Z,99347.09
2023-05-14T06:42:21.770Z,99345.23
2023-05-14T06:44:52.537Z,99344.26
2023-05-14T06:47:23.628Z,99339.97
2023-05-14T06:49:55.926Z,99345.84
2023-05-14T06:52:27.277Z,99342.27
2023-05-14T06:54:58.174Z,99336.86
2023-05-14T06:57:29.034Z,99336.70
2023-05-14T07:00:02.885Z,99334.19
2023-05-14T07:02:34.448Z,99325.83
2023-05-14T07:05:05.588Z,99325.70
2023-05-14T07:07:36.518Z,99318.40
2023-05-14T07:10:09.349Z,99319.41
2023-05-14T07:12:40.598Z,99317.31
2023-05-14T07:15:13.140Z,99316.81
2023-05-14T07:17:46.781Z,99312.77
2023-05-14T07:20:17.759Z,99313.70
2023-05-14T07:22:48.758Z,99311.77
2023-05-14T07:25:19.901Z,99310.58
2023-05-14T07:27:50.796Z,99308.78
2023-05-14T07:30:21.826Z,99306.92
2023-05-14T07:32:53.122Z,99301.73
2023-05-14T07:35:25.589Z,99304.83
2023-05-14T07:37:56.568Z,99304.83
2023-05-14T07:40:27.582Z,99298.05
2023-05-14T07:42:58.522Z,99290.96
2023-05-14T07:45:29.365Z,99298.05
2023-05-14T07:48:00.175Z,99299.73
2023-05-14T07:50:31.851Z,99301.12
2023-05-14T07:53:02.850Z,99294.51
2023-05-14T07:55:34.140Z,99289.74
2023-05-14T07:58:04.967Z,99289.95
2023-05-14T08:00:36.263Z,99287.96
2023-05-14T08:03:07.154Z,99288.42
2023-05-14T08:05:38.319Z,99284.96
2023-05-14T08:08:10.572Z,99281.35
2023-05-14T08:10:41.463Z,99279.98
2023-05-14T08:13:12.499Z,99278.56
2023-05-14T08:15:43.579Z,99276.46
2023-05-14T08:18:14.483Z,99267.77
2023-05-14T08:20:45.605Z,99258.73
2023-05-14T08:23:16.441Z,99253.77
2023-05-14T08:25:47.588Z,99249.08
2023-05-14T08:28:18.442Z,99242.30
2023-05-14T08:30:49.317Z,99246.55
2023-05-14T08:33:20.105Z,99243.10
2023-05-14T08:35:51.360Z,99240.35
2023-05-14T08:38:22.451Z,99234.70
2023-05-14T08:40:58.141Z,99231.26
2023-05-14T08:43:32.299Z,99228.03
2023-05-14T08:46:06.518Z,99224.95
2023-05-14T08:48:38.109Z,99221.56
2023-05-14T08:51:10.333Z,99222.50
2023-05-14T08:53:42.080Z,99214.36
2023-05-14T08:56:14.034Z,99215.00
2023-05-14T08:58:44.887Z,99215.36
2023-05-14T09:01:15.783Z,99212.80
2023-05-14T09:03:47.434Z,99214.64
2023-05-14T09:06:19.473Z,99208.48
2023-05-14T09:08:50.810Z,99209.00
2023-05-14T09:11:21.688Z,99202.33
2023-05-14T09:13:52.510Z,99205.38
2023-05-14T09:16:24.124Z,99196.93
2023-05-14T09:18:55.660Z,99195.58
2023-05-14T09:21:26.768Z,99200.74
2023-05-14T09:23:59.793Z,99196.77
2023-05-14T09:26:32.907Z,99193.27
2023-05-14T09:29:04.403Z,99192.91
2023-05-14T09:31:37.437Z,99192.69
2023-05-14T09:34:08.309Z,99189.33
2023-05-14T09:36:39.474Z,99189.95
2023-05-14T09:39:10.232Z,99188.20
2023-05-14T09:41:40.949Z,99190.05
2023-05-14T09:44:11.958Z,99184.39
2023-05-14T09:46:42.942Z,99183.35
2023-05-14T09:49:14.178Z,99175.89
2023-05-14T09:51:45.865Z,99175.58
2023-05-14T09:54:17.737Z,99170.30
2023-05-14T09:56:48.774Z,99161.90
2023-05-14T09:59:19.805Z,99162.43
2023-05-14T10:01:52.512Z,99163.59
2023-05-14T10:04:24.302Z,99160.57
2023-05-14T10:06:57.251Z,99154.35
2023-05-14T10:09:31.083Z,99152.77
2023-05-14T10:12:02.618Z,99151.30
2023-05-14T10:14:40.066Z,99150.33
2023-05-14T10:17:18.619Z,99147.83
2023-05-14T10:19:53.783Z,99148.69
2023-05-14T10:22:28.689Z,99149.99
2023-05-14T10:25:00.535Z,99148.30
2023-05-14T10:27:32.046Z,99151.73
2023-05-14T10:30:06.912Z,99150.04
2023-05-14T10:32:38.116Z,99152.35
2023-05-14T10:35:20.811Z,99145.35
2023-05-14T10:37:53.802Z,99145.95
2023-05-14T10:40:26.547Z,99149.91
2023-05-14T10:43:00.377Z,99142.79
2023-05-14T10:45:33.853Z,99139.80
2023-05-14T10:48:05.225Z,99141.83
2023-05-14T10:50:36.289Z,99136.32
2023-05-14T10:53:11.782Z,99144.93
2023-05-14T10:55:43.579Z,99140.31
2023-05-14T10:58:18.264Z,99132.88
2023-05-14T11:00:51.076Z,99131.77
2023-05-14T11:03:22.764Z,99129.71
2023-05-14T11:05:56.162Z,99130.85
2023-05-14T11:08:29.530Z,99122.96
2023-05-14T11:11:01.111Z,99120.55
2023-05-14T11:13:34.470Z,99115.36
2023-05-14T11:16:15.580Z,99119.96
2023-05-14T11:19:04.681Z,99116.08
2023-05-14T11:21:35.889Z,99117.14
2023-05-14T11:24:07.703Z,99117.48
2023-05-14T11:26:39.014Z,99113.18
2023-05-14T11:29:11.427Z,99110.90
2023-05-14T11:31:43.726Z,99111.90
2023-05-14T11:34:14.529Z,99116.45
2023-05-14T11:36:45.518Z,99117.16
2023-05-14T11:39:22.122Z,99118.06
2023-05-14T11:41:52.950Z,99114.92
2023-05-14T11:44:24.228Z,99116.65
2023-05-14T11:46:59.571Z,99111.94
2023-05-14T11:49:31.222Z,99116.48
2023-05-14T11:52:03.208Z,99117.77
2023-05-14T11:54:35.767Z,99116.27
2023-05-14T11:57:12.696Z,99116.01
2023-05-14T11:59:43.549Z,99114.69
2023-05-14T12:02:15.835Z,99113.71
2023-05-14T12:04:51.350Z,99111.85
2023-05-14T12:07:22.641Z,99109.58
2023-05-14T12:09:53.605Z,99109.30
2023-05-14T12:12:25.163Z,99113.27
2023-05-14T12:14:56.190Z,99112.06
2023-05-14T12:17:27.214Z,99110.70
2023-05-14T12:19:59.911Z,99109.81
2023-05-14T12:22:32.962Z,99107.63
2023-05-14T12:25:05.520Z,99112.23
2023-05-14T12:27:40.392Z,99108.14
2023-05-14T12:30:21.435Z,99110.41
2023-05-14T12:32:53.798Z,99110.64
2023-05-14T12:35:25.271Z,99104.95
2023-05-14T12:37:56.526Z,99107.31
2023-05-14T12:40:27.409Z,99102.09
2023-05-14T12:42:58.150Z,99106.19
2023-05-14T12:45:28.986Z,99099.50
2023-05-14T12:48:00.342Z,99097.08
2023-05-14T12:50:31.381Z,99099.13
2023-05-14T12:53:02.336Z,99101.86
2023-05-14T12:55:34.351Z,99100.64
2023-05-14T12:58:05.356Z,99097.64
2023-05-14T13:00:36.390Z,99096.18
2023-05-14T13:03:07.319Z,99100.49
2023-05-14T13:05:38.647Z,99099.06
2023-05-14T13:08:10.847Z,99096.34
2023-05-14T13:10:41.871Z,99094.24
2023-05-14T13:13:15.296Z,99093.58
2023-05-14T13:15:46.859Z,99096.64
2023-05-14T13:18:19.047Z,99090.91
2023-05-14T13:20:50.282Z,99086.73
2023-05-14T13:23:21.102Z,99084.54
2023-05-14T13:25:52.583Z,99088.39
2023-05-14T13:28:23.233Z,99086.63
2023-05-14T13:31:08.809Z,99085.57
2023-05-14T13:33:42.388Z,99087.87
2023-05-14T13:36:15.003Z,99085.18
2023-05-14T13:38:46.885Z,99083.56
2023-05-14T13:41:18.282Z,99082.25
2023-05-14T13:43:49.059Z,99081.55
2023-05-14T13:46:19.999Z,99083.30
2023-05-14T13:48:51.296Z,99080.62
2023-05-14T13:51:22.290Z,99077.64
2023-05-14T13:56:30.370Z,99077.08
2023-05-14T13:59:01.573Z,99075.41
2023-05-14T14:01:32.414Z,99072.34
2023-05-14T14:04:03.565Z,99070.11
2023-05-14T14:06:35.033Z,99067.39
2023-05-14T14:09:06.304Z,99067.33
2023-05-14T14:11:37.249Z,99063.40
2023-05-14T14:14:08.333Z,99068.32
2023-05-14T14:16:39.617Z,99063.91
2023-05-14T14:19:11.416Z,99061.84
2023-05-14T14:21:42.996Z,99060.21
2023-05-14T14:24:13.732Z,99060.19
2023-05-14T14:26:44.905Z,99060.59
2023-05-14T14:29:18.379Z,99056.52
2023-05-14T14:31:49.989Z,99057.05
2023-05-14T14:34:21.005Z,99052.29
2023-05-14T14:36:53.445Z,99052.83
2023-05-14T14:39:26.656Z,99057.11
2023-05-14T14:41:57.931Z,99060.07
2023-05-14T14:44:28.855Z,99057.78
2023-05-14T14:47:00.145Z,99064.83
2023-05-14T14:49:32.285Z,99061.30
2023-05-14T14:52:03.198Z,99060.94
2023-05-14T14:54:33.965Z,99062.34
2023-05-14T14:57:05.078Z,99058.58
2023-05-14T14:59:36.256Z,99053.96
2023-05-14T15:02:09.065Z,99054.39
2023-05-14T15:04:39.854Z,99051.97
2023-05-14T15:07:11.433Z,99054.11
2023-05-14T15:09:42.481Z,99050.98
2023-05-14T15:12:14.397Z,99054.11
2023-05-14T15:14:45.288Z,99055.38
2023-05-14T15:17:16.671Z,99055.08
2023-05-14T15:19:47.893Z,99052.78
2023-05-14T15:22:18.816Z,99047.55
2023-05-14T15:24:49.888Z,99048.03
2023-05-14T15:27:21.179Z,99050.89
2023-05-14T15:29:52.707Z,99051.42
2023-05-14T15:32:24.683Z,99051.46
2023-05-14T15:34:55.876Z,99053.88
2023-05-14T15:37:27.998Z,99049.81
2023-05-14T15:39:58.783Z,99046.04
2023-05-14T15:42:30.411Z,99048.84
2023-05-14T15:45:01.383Z,99049.10
2023-05-14T15:47:32.790Z,99042.42
2023-05-14T15:50:03.973Z,99042.42
2023-05-14T15:52:35.174Z,99044.95
2023-05-14T15:55:06.608Z,99041.19
2023-05-14T15:57:37.660Z,99039.06
2023-05-14T16:00:11.636Z,99041.63
2023-05-14T16:02:43.078Z,99046.69
2023-05-14T16:05:14.883Z,99043.43
2023-05-14T16:07:46.129Z,99042.27
2023-05-14T16:10:17.129Z,99047.19
2023-05-14T16:12:48.245Z,99040.37
2023-05-14T16:15:19.369Z,99039.27
2023-05-14T16:17:50.454Z,99038.54
2023-05-14T16:20:22.051Z,99036.52
2023-05-14T16:22:53.144Z,99032.78
2023-05-14T16:25:24.378Z,99028.04
2023-05-14T16:27:55.712Z,99021.88
2023-05-14T16:30:26.744Z,99025.77
2023-05-14T16:32:58.041Z,99024.14
2023-05-14T16:35:29.072Z,99018.45
2023-05-14T16:38:00.411Z,99017.29
2023-05-14T16:40:31.371Z,99012.60
2023-05-14T16:43:02.353Z,99010.90
2023-05-14T16:45:35.007Z,99011.04
2023-05-14T16:48:06.647Z,99007.80
2023-05-14T16:50:37.887Z,99001.25
2023-05-14T16:53:09.230Z,99004.29
2023-05-14T16:55:40.984Z,99006.24
2023-05-14T16:58:12.397Z,99003.48
2023-05-14T17:00:43.781Z,98995.84
2023-05-14T17:03:15.557Z,98992.77
2023-05-14T17:05:47.503Z,98982.30
2023-05-14T17:08:18.470Z,98984.73
2023-05-14T17:10:49.807Z,98982.71
2023-05-14T17:13:21.264Z,98981.47
2023-05-14T17:15:52.786Z,98982.00
2023-05-14T17:18:24.090Z,98980.70
2023-05-14T17:20:55.360Z,98976.77
2023-05-14T17:23:26.655Z,98975.15
2023-05-14T17:25:58.132Z,98973.31
2023-05-14T17:28:30.140Z,98967.10
2023-05-14T17:31:01.553Z,98970.52
2023-05-14T17:33:33.220Z,98970.20
2023-05-14T17:36:05.522Z,98970.11
2023-05-14T17:38:37.676Z,98969.04
2023-05-14T17:41:09.937Z,98966.29
2023-05-14T17:43:40.890Z,98964.60
2023-05-14T17:46:13.457Z,98966.30
2023-05-14T17:48:44.572Z,98964.30
2023-05-14T17:51:15.554Z,98959.21
2023-05-14T17:53:47.531Z,98957.45
2023-05-14T17:56:18.691Z,98955.69
2023-05-14T17:58:50.870Z,98953.19
2023-05-14T18:01:22.006Z,98951.33
2023-05-14T18:03:53.633Z,98950.66
2023-05-14T18:06:24.604Z,98948.30
2023-05-14T18:08:56.065Z,98949.92
2023-05-14T18:11:32.807Z,98946.10
2023-05-14T18:14:05.114Z,98948.56
2023-05-14T18:16:38.125Z,98952.35
2023-05-14T18:19:09.303Z,98947.85
2023-05-14T18:21:40.934Z,98947.23
2023-05-14T18:24:12.471Z,98950.44
2023-05-14T18:26:43.715Z,98948.31
2023-05-14T18:29:15.023Z,98946.42
2023-05-14T18:31:48.809Z,98944.73
2023-05-14T18:34:20.212Z,98945.41
2023-05-14T18:36:51.696Z,98948.02
2023-05-14T18:39:23.460Z,98944.42
2023-05-14T18:41:55.308Z,98938.70
2023-05-14T18:44:26.687Z,98937.30
2023-05-14T18:46:59.560Z,98935.10
2023-05-14T18:49:31.366Z,98934.72
2023-05-14T18:52:02.590Z,98930.17
2023-05-14T18:54:34.029Z,98930.66
2023-05-14T18:57:07.838Z,98930.53
2023-05-14T18:59:38.982Z,98928.75
2023-05-14T19:02:10.991Z,98924.73
2023-05-14T19:04:51.824Z,98924.56
2023-05-14T19:07:24.502Z,98923.84
2023-05-14T19:09:56.145Z,98926.92
2023-05-14T19:12:27.194Z,98921.14
2023-05-14T19:14:58.556Z,98919.77
2023-05-14T19:17:32.897Z,98924.09
2023-05-14T19:20:05.045Z,98919.00
2023-05-14T19:22:36.058Z,98923.79
2023-05-14T19:25:08.444Z,98923.59
2023-05-14T19:27:40.314Z,98923.58
2023-05-14T19:30:14.545Z,98918.53
2023-05-14T19:32:45.530Z,98912.27
2023-05-14T19:35:17.548Z,98908.58
2023-05-14T19:37:49.016Z,98901.49
2023-05-14T19:40:20.809Z,98898.43
2023-05-14T19:42:51.862Z,98899.60
2023-05-14T19:45:22.950Z,98898.66
2023-05-14T19:47:54.231Z,98895.96
2023-05-14T19:50:25.535Z,98891.58
2023-05-14T19:52:56.932Z,98883.86
2023-05-14T19:55:29.837Z,98874.27
2023-05-14T19:58:01.069Z,98869.55
2023-05-14T20:00:32.144Z,98864.16
2023-05-14T20:03:03.325Z,98856.27
2023-05-14T20:05:36.341Z,98850.83
2023-05-14T20:08:09.439Z,98851.83
2023-05-14T20:10:41.699Z,98848.51
2023-05-14T20:13:12.701Z,98845.66
2023-05-14T20:15:44.178Z,98841.06
2023-05-14T20:18:15.165Z,98840.73
2023-05-14T20:20:46.184Z,98838.64
2023-05-14T20:23:17.541Z,98832.91
2023-05-14T20:25:48.959Z,98830.80
2023-05-14T20:28:19.894Z,98823.55
2023-05-14T20:30:50.673Z,98823.70
2023-05-14T20:33:21.530Z,98815.41
2023-05-14T20:35:52.568Z,98809.09
2023-05-14T20:38:25.724Z,98798.91
2023-05-14T20:40:56.569Z,98791.52
2023-05-14T20:43:28.967Z,98786.40
2023-05-14T20:46:01.000Z,98784.80
2023-05-14T20:48:35.216Z,98783.33
2023-05-14T20:51:06.767Z,98776.80
2023-05-14T20:53:39.284Z,98773.83
2023-05-14T20:56:10.562Z,98769.65
2023-05-14T20:58:41.828Z,98765.13
2023-05-14T21:01:12.548Z,98758.83
2023-05-14T21:03:43.868Z,98757.66
2023-05-14T21:06:14.984Z,98752.08
2023-05-14T21:08:45.983Z,98754.77
2023-05-14T21:11:16.975Z,98755.94
2023-05-14T21:13:47.871Z,98749.58
2023-05-14T21:16:19.940Z,98744.28
2023-05-14T21:18:50.807Z,98742.21
2023-05-14T21:21:21.717Z,98737.30
2023-05-14T21:23:52.513Z,98737.31
2023-05-14T21:26:23.697Z,98732.08
2023-05-14T21:28:54.558Z,98729.21
2023-05-14T21:31:25.634Z,98729.95
2023-05-14T21:33:56.521Z,98722.38
2023-05-14T21:36:27.741Z,98720.78
2023-05-14T21:38:58.442Z,98716.10
2023-05-14T21:41:29.299Z,98711.45
2023-05-14T21:44:00.027Z,98708.77
2023-05-14T21:46:31.328Z,98703.39
2023-05-14T21:49:02.069Z,98698.42
2023-05-14T21:51:33.333Z,98691.42
2023-05-14T21:54:04.189Z,98693.95
2023-05-14T21:56:35.970Z,98689.20
2023-05-14T21:59:07.112Z,98690.30
2023-05-14T22:01:50.604Z,98683.80
2023-05-14T22:04:28.397Z,98678.85
2023-05-14T22:06:59.257Z,98676.18
2023-05-14T22:09:30.570Z,98668.95
2023-05-14T22:12:01.446Z,98666.27
2023-05-14T22:14:32.152Z,98663.84
2023-05-14T22:17:03.036Z,98661.35
2023-05-14T22:19:33.862Z,98657.35
2023-05-14T22:22:04.813Z,98654.45
2023-05-14T22:24:35.647Z,98651.26
2023-05-14T22:27:07.007Z,98644.42
2023-05-14T22:29:38.391Z,98640.52
2023-05-14T22:32:10.389Z,98635.63
2023-05-14T22:34:41.580Z,98629.42
2023-05-14T22:37:12.536Z,98628.23
2023-05-14T22:39:43.352Z,98626.53
2023-05-14T22:42:14.108Z,98626.01
2023-05-14T22:44:45.212Z,98623.58
2023-05-14T22:47:15.971Z,98621.48
2023-05-14T22:49:46.713Z,98615.81
2023-05-14T22:52:18.896Z,98614.09
2023-05-14T22:54:51.068Z,98612.14
2023-05-14T22:57:21.872Z,98608.31
2023-05-14T22:59:52.516Z,98600.26
2023-05-14T23:02:23.308Z,98595.80
2023-05-14T23:04:54.271Z,98590.70
2023-05-14T23:07:25.469Z,98588.91
2023-05-14T23:09:56.295Z,98586.45
2023-05-14T23:12:26.920Z,98581.91
2023-05-14T23:14:59.268Z,98575.43
2023-05-14T23:17:30.042Z,98574.01
2023-05-14T23:20:01.001Z,98568.86
2023-05-14T23:22:31.665Z,98564.71
2023-05-14T23:25:02.365Z,98561.66
2023-05-14T23:27:33.103Z,98558.90
2023-05-14T23:30:04.016Z,98549.34
2023-05-14T23:32:34.669Z,98549.23
2023-05-14T23:35:06.048Z,98540.73
2023-05-14T23:37:41.769Z,98541.14
2023-05-14T23:40:14.214Z,98537.56
2023-05-14T23:42:44.981Z,98533.17
2023-05-14T23:45:15.729Z,98531.55
2023-05-14T23:47:46.778Z,98528.98
2023-05-14T23:50:17.525Z,98527.10
2023-05-14T23:52:48.313Z,98523.29
2023-05-14T23:55:19.468Z,98518.30
2023-05-14T23:57:51.294Z,98515.08
